createdAt,value
2023-03-06T00:00:34.942Z,81.42
2023-03-06T00:03:03.992Z,82.99
2023-03-06T00:05:31.683Z,84.25
2023-03-06T00:07:59.135Z,82.97
2023-03-06T00:10:28.626Z,82.31
2023-03-06T00:12:57.322Z,83.46
2023-03-06T00:15:26.410Z,82.62
2023-03-06T00:17:54.143Z,83.20
2023-03-06T00:20:23.848Z,83.19
2023-03-06T00:22:51.871Z,82.97
2023-03-06T00:25:21.486Z,82.88
2023-03-06T00:27:49.412Z,82.82
2023-03-06T00:30:19.424Z,81.93
2023-03-06T00:32:46.932Z,82.05
2023-03-06T00:35:15.204Z,84.63
2023-03-06T00:37:44.272Z,81.99
2023-03-06T00:40:14.793Z,83.80
2023-03-06T00:42:42.465Z,85.39
2023-03-06T00:45:10.695Z,90.35
2023-03-06T00:47:38.448Z,88.77
2023-03-06T00:50:06.873Z,86.58
2023-03-06T00:52:34.376Z,83.97
2023-03-06T00:55:03.326Z,83.51
2023-03-06T00:57:31.268Z,84.30
2023-03-06T00:59:58.704Z,83.75
2023-03-06T01:02:26.460Z,88.93
2023-03-06T01:04:53.942Z,84.84
2023-03-06T01:07:21.354Z,85.23
2023-03-06T01:09:48.806Z,86.64
2023-03-06T01:12:17.612Z,85.41
2023-03-06T01:14:45.433Z,84.75
2023-03-06T01:17:12.889Z,83.45
2023-03-06T01:19:40.354Z,82.52
2023-03-06T01:22:07.854Z,83.43
2023-03-06T01:24:35.396Z,82.47
2023-03-06T01:27:02.864Z,82.93
2023-03-06T01:29:31.707Z,83.30
2023-03-06T01:31:59.259Z,83.53
2023-03-06T01:34:26.980Z,83.17
2023-03-06T01:36:54.413Z,83.16
2023-03-06T01:39:22.001Z,82.96
2023-03-06T01:41:49.477Z,83.76
2023-03-06T01:44:16.944Z,84.50
2023-03-06T01:46:46.489Z,83.46
2023-03-06T01:49:19.474Z,84.60
2023-03-06T01:51:51.186Z,84.29
2023-03-06T01:54:23.745Z,90.54
2023-03-06T01:56:55.138Z,87.94
2023-03-06T01:59:24.655Z,88.13
2023-03-06T02:01:54.904Z,85.79
2023-03-06T02:04:22.503Z,88.87
2023-03-06T02:06:50.640Z,88.77
2023-03-06T02:09:18.206Z,86.43
2023-03-06T02:11:46.305Z,88.63
2023-03-06T02:14:16.277Z,90.05
2023-03-06T02:16:44.502Z,92.63
2023-03-06T02:19:22.916Z,88.35
2023-03-06T02:21:50.840Z,85.88
2023-03-06T02:24:32.321Z,85.99
2023-03-06T02:27:04.100Z,85.75
2023-03-06T02:29:32.236Z,87.42
2023-03-06T02:31:59.922Z,85.45
2023-03-06T02:34:57.212Z,84.75
2023-03-06T02:37:27.482Z,86.95
2023-03-06T02:40:02.094Z,84.24
2023-03-06T02:42:31.218Z,86.52
2023-03-06T02:45:01.867Z,91.20
2023-03-06T02:47:29.502Z,89.60
2023-03-06T02:49:56.936Z,88.14
2023-03-06T02:52:25.158Z,87.88
2023-03-06T02:54:52.632Z,86.66
2023-03-06T02:57:20.116Z,88.00
2023-03-06T02:59:48.843Z,89.49
2023-03-06T03:02:16.569Z,86.78
2023-03-06T03:04:44.115Z,86.25
2023-03-06T03:07:11.599Z,89.99
2023-03-06T03:09:39.032Z,88.86
2023-03-06T03:12:08.220Z,90.33
2023-03-06T03:14:36.044Z,87.91
2023-03-06T03:17:05.219Z,89.56
2023-03-06T03:19:32.758Z,88.59
2023-03-06T03:22:00.199Z,86.65
2023-03-06T03:24:28.038Z,86.14
2023-03-06T03:26:55.494Z,87.91
2023-03-06T03:29:23.025Z,86.82
2023-03-06T03:31:50.756Z,86.20
2023-03-06T03:34:19.694Z,84.38
2023-03-06T03:36:47.426Z,87.26
2023-03-06T03:39:15.326Z,85.97
2023-03-06T03:41:42.787Z,86.58
2023-03-06T03:44:10.963Z,86.52
2023-03-06T03:46:38.805Z,84.78
2023-03-06T03:49:06.798Z,83.36
2023-03-06T03:51:35.729Z,87.40
2023-03-06T03:54:03.204Z,86.65
2023-03-06T03:56:30.645Z,86.95
2023-03-06T03:58:58.781Z,88.80
2023-03-06T04:01:26.637Z,90.73
2023-03-06T04:03:54.065Z,95.67
2023-03-06T04:06:21.522Z,97.83
2023-03-06T04:08:50.268Z,97.65
2023-03-06T04:11:18.081Z,97.20
2023-03-06T04:13:45.618Z,96.30
2023-03-06T04:16:13.127Z,95.12
2023-03-06T04:18:40.707Z,94.25
2023-03-06T04:21:08.146Z,93.38
2023-03-06T04:23:35.799Z,93.39
2023-03-06T04:26:05.004Z,94.94
2023-03-06T04:28:32.430Z,95.20
2023-03-06T04:30:59.867Z,93.19
2023-03-06T04:33:27.395Z,92.20
2023-03-06T04:35:54.822Z,93.15
2023-03-06T04:38:22.327Z,92.74
2023-03-06T04:40:50.100Z,93.13
2023-03-06T04:43:19.063Z,93.35
2023-03-06T04:45:46.624Z,91.35
2023-03-06T04:48:15.708Z,91.07
2023-03-06T04:50:43.212Z,91.92
2023-03-06T04:53:11.033Z,91.92
2023-03-06T04:55:38.539Z,93.05
2023-03-06T04:58:05.979Z,93.08
2023-03-06T05:00:34.747Z,94.75
2023-03-06T05:03:02.822Z,94.46
2023-03-06T05:05:30.518Z,93.74
2023-03-06T05:07:58.355Z,93.87
2023-03-06T05:10:25.785Z,92.95
2023-03-06T05:12:53.294Z,92.52
2023-03-06T05:15:21.146Z,90.82
2023-03-06T05:17:50.100Z,91.50
2023-03-06T05:20:18.966Z,90.51
2023-03-06T05:22:46.466Z,90.87
2023-03-06T05:25:13.896Z,91.46
2023-03-06T05:27:42.000Z,91.38
2023-03-06T05:30:12.793Z,91.67
2023-03-06T05:32:40.293Z,91.81
2023-03-06T05:35:19.693Z,90.07
2023-03-06T05:37:47.653Z,92.95
2023-03-06T05:40:16.137Z,93.30
2023-03-06T05:42:43.603Z,92.96
2023-03-06T05:45:12.314Z,91.55
2023-03-06T05:47:39.778Z,90.39
2023-03-06T05:50:10.501Z,92.05
2023-03-06T05:52:38.139Z,91.96
2023-03-06T05:55:06.266Z,91.06
2023-03-06T05:57:33.685Z,91.62
2023-03-06T06:00:01.090Z,92.41
2023-03-06T06:02:28.636Z,91.48
2023-03-06T06:04:56.046Z,91.81
2023-03-06T06:07:24.800Z,91.56
2023-03-06T06:09:54.040Z,91.63
2023-03-06T06:12:21.558Z,92.02
2023-03-06T06:14:48.994Z,90.36
2023-03-06T06:17:16.806Z,89.96
2023-03-06T06:19:44.464Z,89.46
2023-03-06T06:22:12.609Z,90.52
2023-03-06T06:24:41.436Z,90.24
2023-03-06T06:27:09.709Z,90.08
2023-03-06T06:29:37.301Z,90.68
2023-03-06T06:32:04.884Z,88.51
2023-03-06T06:34:32.368Z,89.31
2023-03-06T06:36:59.810Z,89.85
2023-03-06T06:39:28.776Z,89.92
2023-03-06T06:42:19.463Z,90.13
2023-03-06T06:44:45.207Z,89.12
2023-03-06T06:47:28.150Z,89.00
2023-03-06T06:49:56.833Z,89.05
2023-03-06T06:52:25.112Z,89.59
2023-03-06T06:54:53.061Z,89.13
2023-03-06T06:57:21.895Z,88.72
2023-03-06T06:59:51.189Z,87.99
2023-03-06T07:02:19.816Z,90.45
2023-03-06T07:05:02.359Z,88.31
2023-03-06T07:07:30.831Z,91.37
2023-03-06T07:09:58.351Z,89.30
2023-03-06T07:12:27.208Z,91.61
2023-03-06T07:14:54.604Z,91.49
2023-03-06T07:17:22.093Z,89.58
2023-03-06T07:19:50.128Z,91.13
2023-03-06T07:22:17.543Z,90.04
2023-03-06T07:24:44.948Z,90.53
2023-03-06T07:27:12.408Z,87.77
2023-03-06T07:29:43.621Z,89.32
2023-03-06T07:32:12.001Z,88.61
2023-03-06T07:34:39.452Z,87.00
2023-03-06T07:37:06.958Z,89.11
2023-03-06T07:39:34.402Z,90.84
2023-03-06T07:42:01.822Z,89.92
2023-03-06T07:44:29.377Z,89.23
2023-03-06T07:46:58.155Z,86.74
2023-03-06T07:49:25.595Z,87.25
2023-03-06T07:51:53.038Z,86.64
2023-03-06T07:54:20.494Z,84.86
2023-03-06T07:56:51.255Z,85.43
2023-03-06T07:59:18.973Z,85.44
2023-03-06T08:01:46.558Z,84.20
2023-03-06T08:04:15.338Z,84.54
2023-03-06T08:06:42.771Z,83.09
2023-03-06T08:09:10.200Z,83.51
2023-03-06T08:11:37.627Z,83.20
2023-03-06T08:14:05.116Z,82.71
2023-03-06T08:16:32.661Z,83.59
2023-03-06T08:19:00.121Z,82.40
2023-03-06T08:21:29.518Z,83.56
2023-03-06T08:23:57.567Z,83.26
2023-03-06T08:26:27.587Z,81.69
2023-03-06T08:28:56.028Z,82.18
2023-03-06T08:31:27.719Z,82.34
2023-03-06T08:33:56.076Z,83.79
2023-03-06T08:36:23.886Z,83.15
2023-03-06T08:38:52.736Z,83.24
2023-03-06T08:41:20.618Z,81.99
2023-03-06T08:43:48.778Z,83.64
2023-03-06T08:46:16.679Z,82.33
2023-03-06T08:48:44.188Z,82.08
2023-03-06T08:51:11.776Z,80.93
2023-03-06T08:53:44.028Z,79.90
2023-03-06T08:56:18.139Z,79.83
2023-03-06T08:58:45.797Z,79.76
2023-03-06T09:01:14.953Z,80.45
2023-03-06T09:03:42.458Z,78.28
2023-03-06T09:06:10.006Z,84.46
2023-03-06T09:08:37.433Z,82.90
2023-03-06T09:11:05.123Z,79.45
2023-03-06T09:13:35.366Z,82.21
2023-03-06T09:16:02.854Z,80.77
2023-03-06T09:18:30.324Z,81.85
2023-03-06T09:20:57.973Z,79.70
2023-03-06T09:23:25.433Z,78.30
2023-03-06T09:25:54.475Z,80.84
2023-03-06T09:28:22.301Z,79.19
2023-03-06T09:30:51.561Z,79.01
2023-03-06T09:33:19.405Z,76.48
2023-03-06T09:35:50.949Z,75.12
2023-03-06T09:38:18.776Z,78.96
2023-03-06T09:41:04.480Z,79.26
2023-03-06T09:43:35.421Z,76.07
2023-03-06T09:46:14.619Z,76.16
2023-03-06T09:48:53.789Z,75.15
2023-03-06T09:51:27.681Z,75.14
2023-03-06T09:54:02.222Z,74.63
2023-03-06T09:56:33.986Z,75.22
2023-03-06T09:59:08.555Z,74.39
2023-03-06T10:01:41.930Z,75.34
2023-03-06T10:04:18.148Z,76.35
2023-03-06T10:06:48.745Z,76.67
2023-03-06T10:09:20.909Z,74.43
2023-03-06T10:11:53.775Z,76.41
2023-03-06T10:14:28.084Z,75.81
2023-03-06T10:16:58.442Z,77.00
2023-03-06T10:19:33.837Z,76.89
2023-03-06T10:22:04.198Z,76.08
2023-03-06T10:24:47.362Z,75.87
2023-03-06T10:27:23.442Z,75.70
2023-03-06T10:30:03.275Z,75.10
2023-03-06T10:32:48.320Z,74.58
2023-03-06T10:35:19.726Z,74.87
2023-03-06T10:37:47.361Z,75.46
2023-03-06T10:40:17.936Z,74.27
2023-03-06T10:42:45.394Z,75.38
2023-03-06T10:45:15.642Z,75.89
2023-03-06T10:47:44.620Z,75.71
2023-03-06T10:50:24.797Z,76.37
2023-03-06T10:53:04.945Z,75.18
2023-03-06T10:55:34.846Z,75.37
2023-03-06T10:58:21.064Z,75.84
2023-03-06T11:00:48.502Z,73.61
2023-03-06T11:03:23.616Z,74.86
2023-03-06T11:05:57.451Z,73.78
2023-03-06T11:08:25.018Z,73.74
2023-03-06T11:10:58.473Z,73.66
2023-03-06T11:13:28.420Z,73.57
2023-03-06T11:15:59.407Z,72.77
2023-03-06T11:18:34.942Z,73.04
2023-03-06T11:21:06.318Z,72.54
2023-03-06T11:23:41.662Z,72.56
2023-03-06T11:26:25.123Z,72.75
2023-03-06T11:29:02.804Z,72.50
2023-03-06T11:31:33.264Z,71.99
2023-03-06T11:34:08.636Z,73.03
2023-03-06T11:36:40.727Z,71.77
2023-03-06T11:39:22.591Z,73.12
2023-03-06T11:41:57.831Z,73.25
2023-03-06T11:44:37.472Z,72.07
2023-03-06T11:47:11.904Z,71.62
2023-03-06T11:49:45.242Z,70.89
2023-03-06T11:52:20.801Z,69.76
2023-03-06T11:54:52.667Z,71.56
2023-03-06T11:57:23.767Z,69.88
2023-03-06T12:00:18.031Z,69.85
2023-03-06T12:03:02.927Z,70.35
2023-03-06T12:05:48.118Z,70.59
2023-03-06T12:08:33.836Z,68.92
2023-03-06T12:14:04.127Z,69.16
2023-03-06T12:16:41.666Z,70.98
2023-03-06T12:19:25.423Z,68.48
2023-03-06T12:22:10.089Z,69.53
2023-03-06T12:24:56.140Z,69.89
2023-03-06T12:27:32.389Z,70.08
2023-03-06T12:30:10.212Z,71.25
2023-03-06T12:32:50.084Z,70.13
2023-03-06T12:35:36.226Z,68.45
2023-03-06T12:38:24.283Z,70.47
2023-03-06T12:41:05.746Z,71.98
2023-03-06T12:43:55.906Z,69.65
2023-03-06T12:46:26.182Z,72.22
2023-03-06T12:49:04.047Z,70.61
2023-03-06T12:51:33.102Z,70.99
2023-03-06T12:54:04.159Z,69.54
2023-03-06T12:56:33.813Z,67.50
2023-03-06T12:59:02.455Z,67.58
2023-03-06T13:01:50.313Z,68.69
2023-03-06T13:04:34.911Z,71.76
2023-03-06T13:07:18.704Z,71.77
2023-03-06T13:10:05.938Z,70.95
2023-03-06T13:12:55.893Z,70.32
2023-03-06T13:15:38.285Z,69.82
2023-03-06T13:18:43.741Z,68.70
2023-03-06T13:21:44.599Z,67.90
2023-03-06T13:24:19.118Z,68.53
2023-03-06T13:26:57.266Z,67.78
2023-03-06T13:29:57.637Z,69.74
2023-03-06T13:32:34.640Z,68.13
2023-03-06T13:35:02.348Z,67.65
2023-03-06T13:37:54.101Z,68.59
2023-03-06T13:40:30.754Z,69.16
2023-03-06T13:43:12.635Z,67.39
2023-03-06T13:45:43.257Z,66.46
2023-03-06T13:48:43.054Z,66.22
2023-03-06T13:51:22.156Z,67.47
2023-03-06T13:54:25.415Z,65.97
2023-03-06T13:57:05.094Z,64.62
2023-03-06T14:00:09.648Z,66.00
2023-03-06T14:02:59.078Z,64.95
2023-03-06T14:05:42.123Z,63.26
2023-03-06T14:08:15.532Z,63.36
2023-03-06T14:10:44.857Z,64.51
2023-03-06T14:13:19.266Z,68.53
2023-03-06T14:15:50.326Z,64.14
2023-03-06T14:18:23.772Z,63.03
2023-03-06T14:20:56.441Z,62.75
2023-03-06T14:23:27.051Z,64.81
2023-03-06T14:26:06.695Z,63.83
2023-03-06T14:28:35.854Z,62.78
2023-03-06T14:31:06.811Z,62.07
2023-03-06T14:33:42.839Z,62.83
2023-03-06T14:36:15.849Z,61.89
2023-03-06T14:38:47.309Z,61.61
2023-03-06T14:41:24.836Z,63.50
2023-03-06T14:43:52.578Z,64.63
2023-03-06T14:46:22.948Z,64.33
2023-03-06T14:48:50.894Z,66.28
2023-03-06T14:51:21.296Z,63.81
2023-03-06T14:53:50.808Z,64.26
2023-03-06T14:56:24.324Z,64.46
2023-03-06T14:58:56.385Z,63.17
2023-03-06T15:01:31.198Z,64.96
2023-03-06T15:04:01.125Z,63.81
2023-03-06T15:06:34.553Z,62.94
2023-03-06T15:09:07.720Z,62.30
2023-03-06T15:11:52.227Z,62.27
2023-03-06T15:14:22.323Z,61.08
2023-03-06T15:16:51.095Z,62.56
2023-03-06T15:19:20.785Z,62.19
2023-03-06T15:21:49.887Z,61.49
2023-03-06T15:24:34.135Z,61.35
2023-03-06T15:27:05.299Z,62.35
2023-03-06T15:29:33.673Z,62.51
2023-03-06T15:32:33.601Z,63.22
2023-03-06T15:35:28.034Z,61.12
2023-03-06T15:37:58.612Z,61.47
2023-03-06T15:40:32.141Z,61.39
2023-03-06T15:43:00.884Z,62.02
2023-03-06T15:45:32.488Z,60.84
2023-03-06T15:48:03.084Z,61.32
2023-03-06T15:50:31.426Z,61.55
2023-03-06T15:53:00.363Z,60.86
2023-03-06T15:55:28.364Z,59.79
2023-03-06T15:57:59.950Z,59.24
2023-03-06T16:00:30.100Z,60.23
2023-03-06T16:02:59.276Z,61.29
2023-03-06T16:05:30.134Z,60.85
2023-03-06T16:08:00.457Z,61.00
2023-03-06T16:10:31.659Z,60.98
2023-03-06T16:13:07.239Z,60.51
2023-03-06T16:15:39.984Z,59.92
2023-03-06T16:18:08.109Z,60.69
2023-03-06T16:20:41.052Z,59.73
2023-03-06T16:23:10.929Z,59.97
2023-03-06T16:25:46.375Z,60.81
2023-03-06T16:28:17.833Z,60.29
2023-03-06T16:30:46.687Z,60.34
2023-03-06T16:33:15.496Z,60.68
2023-03-06T16:35:46.703Z,60.72
2023-03-06T16:38:15.653Z,60.98
2023-03-06T16:40:43.536Z,60.58
2023-03-06T16:43:13.335Z,61.01
2023-03-06T16:45:42.182Z,61.68
2023-03-06T16:48:15.639Z,62.28
2023-03-06T16:50:44.526Z,62.42
2023-03-06T16:53:11.984Z,67.65
2023-03-06T16:55:39.441Z,67.16
2023-03-06T16:58:08.549Z,69.29
2023-03-06T17:00:36.014Z,68.67
2023-03-06T17:03:03.587Z,68.47
2023-03-06T17:05:34.041Z,68.51
2023-03-06T17:08:03.613Z,69.18
2023-03-06T17:10:31.085Z,69.39
2023-03-06T17:16:46.468Z,71.30
2023-03-06T17:19:15.237Z,72.08
2023-03-06T17:21:42.744Z,70.83
2023-03-06T17:24:11.483Z,72.78
2023-03-06T17:26:39.090Z,70.83
2023-03-06T17:29:07.180Z,70.90
2023-03-06T17:31:34.668Z,71.14
2023-03-06T17:34:02.130Z,70.73
2023-03-06T17:36:30.817Z,70.84
2023-03-06T17:38:59.486Z,71.20
2023-03-06T17:41:28.861Z,71.31
2023-03-06T17:43:58.211Z,72.57
2023-03-06T17:46:26.507Z,72.17
2023-03-06T17:48:53.951Z,72.36
2023-03-06T17:51:21.384Z,72.47
2023-03-06T17:53:49.207Z,71.58
2023-03-06T17:56:16.733Z,72.12
2023-03-06T17:58:45.765Z,72.10
2023-03-06T18:01:22.586Z,71.65
2023-03-06T18:03:51.866Z,72.25
2023-03-06T18:06:20.977Z,73.82
2023-03-06T18:08:51.558Z,73.86
2023-03-06T18:11:20.393Z,73.23
2023-03-06T18:13:49.275Z,72.66
2023-03-06T18:16:18.945Z,72.59
2023-03-06T18:18:47.301Z,72.36
2023-03-06T18:21:16.427Z,72.52
2023-03-06T18:23:43.903Z,72.83
2023-03-06T18:26:13.413Z,73.54
2023-03-06T18:28:42.603Z,73.68
2023-03-06T18:31:17.016Z,75.47
2023-03-06T18:33:44.578Z,74.20
2023-03-06T18:36:12.137Z,74.96
2023-03-06T18:38:41.306Z,74.08
2023-03-06T18:41:09.366Z,74.93
2023-03-06T18:43:36.957Z,75.86
2023-03-06T18:46:05.196Z,76.12
2023-03-06T18:48:33.936Z,76.85
2023-03-06T18:51:04.787Z,76.61
2023-03-06T18:53:32.304Z,76.52
2023-03-06T18:55:59.801Z,76.89
2023-03-06T18:58:27.850Z,76.30
2023-03-06T19:00:56.677Z,78.20
2023-03-06T19:03:25.145Z,80.42
2023-03-06T19:05:53.868Z,77.96
2023-03-06T19:08:21.284Z,77.66
2023-03-06T19:10:49.960Z,80.31
2023-03-06T19:13:17.401Z,78.80
2023-03-06T19:15:45.912Z,77.74
2023-03-06T19:18:14.899Z,78.15
2023-03-06T19:20:42.358Z,79.21
2023-03-06T19:23:11.695Z,81.10
2023-03-06T19:25:39.150Z,79.70
2023-03-06T19:28:06.837Z,80.14
2023-03-06T19:30:34.604Z,79.25
2023-03-06T19:33:02.004Z,81.50
2023-03-06T19:35:29.462Z,81.71
2023-03-06T19:37:56.930Z,78.94
2023-03-06T19:40:25.680Z,81.08
2023-03-06T19:42:53.113Z,80.47
2023-03-06T19:45:20.593Z,79.33
2023-03-06T19:47:49.209Z,78.35
2023-03-06T19:50:17.179Z,78.11
2023-03-06T19:52:44.575Z,78.47
2023-03-06T19:55:12.103Z,79.50
2023-03-06T19:57:41.024Z,78.87
2023-03-06T20:00:09.753Z,78.49
2023-03-06T20:02:37.442Z,78.04
2023-03-06T20:05:08.083Z,78.46
2023-03-06T20:07:36.662Z,78.87
2023-03-06T20:10:04.589Z,78.64
2023-03-06T20:12:33.122Z,79.02
2023-03-06T20:15:01.919Z,80.10
2023-03-06T20:17:29.981Z,80.88
2023-03-06T20:19:57.535Z,78.68
2023-03-06T20:22:24.934Z,79.11
2023-03-06T20:24:52.551Z,78.19
2023-03-06T20:27:20.098Z,78.35
2023-03-06T20:29:47.753Z,80.24
2023-03-06T20:32:16.621Z,82.44
2023-03-06T20:34:44.484Z,80.63
2023-03-06T20:37:12.023Z,79.42
2023-03-06T20:39:39.435Z,77.66
2023-03-06T20:42:06.905Z,78.16
2023-03-06T20:44:34.308Z,82.37
2023-03-06T20:47:01.724Z,80.18
2023-03-06T20:49:30.471Z,80.85
2023-03-06T20:51:57.849Z,80.55
2023-03-06T20:54:25.367Z,79.80
2023-03-06T20:56:52.757Z,80.28
2023-03-06T20:59:20.204Z,79.64
2023-03-06T21:01:48.185Z,78.42
2023-03-06T21:04:16.433Z,80.25
2023-03-06T21:06:47.021Z,82.10
2023-03-06T21:09:15.904Z,80.54
2023-03-06T21:11:43.687Z,79.86
2023-03-06T21:14:13.174Z,80.68
2023-03-06T21:16:41.218Z,80.02
2023-03-06T21:19:09.191Z,80.25
2023-03-06T21:21:36.683Z,81.09
2023-03-06T21:24:05.798Z,81.79
2023-03-06T21:26:34.652Z,81.25
2023-03-06T21:29:02.971Z,82.71
2023-03-06T21:31:31.675Z,82.56
2023-03-06T21:33:59.587Z,81.54
2023-03-06T21:36:27.594Z,81.24
2023-03-06T21:38:55.785Z,80.21
2023-03-06T21:41:26.731Z,82.24
2023-03-06T21:43:56.186Z,82.01
2023-03-06T21:46:23.739Z,84.24
2023-03-06T21:48:51.710Z,84.35
2023-03-06T21:51:20.760Z,83.69
2023-03-06T21:53:49.609Z,81.76
2023-03-06T21:56:18.967Z,82.70
2023-03-06T21:58:47.990Z,81.58
2023-03-06T22:01:19.129Z,81.94
2023-03-06T22:03:46.862Z,83.64
2023-03-06T22:06:16.553Z,80.49
2023-03-06T22:08:44.674Z,80.64
2023-03-06T22:11:13.998Z,84.18
2023-03-06T22:13:42.368Z,91.46
2023-03-06T22:16:11.754Z,92.96
2023-03-06T22:18:39.395Z,90.34
2023-03-06T22:21:08.289Z,82.61
2023-03-06T22:23:35.744Z,86.89
2023-03-06T22:26:04.430Z,73.99
2023-03-06T22:28:31.893Z,74.40
2023-03-06T22:31:04.923Z,73.75
2023-03-06T22:33:33.846Z,75.94
2023-03-06T22:36:06.084Z,78.30
2023-03-06T22:38:34.654Z,77.91
2023-03-06T22:41:02.358Z,80.40
2023-03-06T22:43:30.084Z,79.96
2023-03-06T22:46:01.742Z,79.53
2023-03-06T22:48:29.445Z,80.45
2023-03-06T22:51:02.965Z,79.71
2023-03-06T22:53:30.695Z,79.57
2023-03-06T22:55:58.901Z,79.33
2023-03-06T22:58:26.833Z,80.50
2023-03-06T23:00:54.459Z,80.37
2023-03-06T23:03:21.966Z,81.47
2023-03-06T23:05:49.374Z,81.72
2023-03-06T23:08:18.111Z,81.47
2023-03-06T23:10:45.859Z,81.00
2023-03-06T23:13:13.435Z,79.97
2023-03-06T23:15:40.897Z,80.28
2023-03-06T23:18:08.431Z,80.89
2023-03-06T23:20:35.870Z,80.95
2023-03-06T23:23:03.374Z,81.71
2023-03-06T23:25:32.137Z,80.92
2023-03-06T23:27:59.574Z,81.04
2023-03-06T23:30:27.030Z,81.49
2023-03-06T23:32:54.442Z,80.50
2023-03-06T23:35:21.880Z,80.38
2023-03-06T23:37:49.323Z,80.85
2023-03-06T23:40:16.990Z,80.37
2023-03-06T23:42:45.733Z,79.03
2023-03-06T23:45:13.173Z,79.89
2023-03-06T23:47:40.823Z,80.00
2023-03-06T23:50:09.192Z,81.54
2023-03-06T23:52:36.635Z,80.39
2023-03-06T23:55:04.205Z,80.76
2023-03-06T23:57:31.737Z,81.40
